sensor_id;sensor_type;location;lat;lon;timestamp;P1;durP1;ratioP1;P2;durP2;ratioP2
41687;SDS011;27371;42.686;23.362;2022-10-16T00:05:43;11.88;;;6.65;;
41687;SDS011;27371;42.686;23.362;2022-10-16T00:08:12;8.77;;;6.25;;
41687;SDS011;27371;42.686;23.362;2022-10-16T00:10:38;8.57;;;5.95;;
41687;SDS011;27371;42.686;23.362;2022-10-16T00:13:05;9.98;;;6.10;;
41687;SDS011;27371;42.686;23.362;2022-10-16T00:15:33;12.05;;;6.20;;
41687;SDS011;27371;42.686;23.362;2022-10-16T00:18:01;12.48;;;7.28;;
41687;SDS011;27371;42.686;23.362;2022-10-16T00:20:27;12.20;;;7.03;;
41687;SDS011;27371;42.686;23.362;2022-10-16T00:22:52;12.55;;;6.82;;
41687;SDS011;27371;42.686;23.362;2022-10-16T00:25:18;15.52;;;8.00;;
41687;SDS011;27371;42.686;23.362;2022-10-16T00:27:43;15.75;;;8.35;;
41687;SDS011;27371;42.686;23.362;2022-10-16T00:30:09;17.67;;;10.88;;
41687;SDS011;27371;42.686;23.362;2022-10-16T00:32:35;12.95;;;8.77;;
41687;SDS011;27371;42.686;23.362;2022-10-16T00:35:00;10.48;;;7.43;;
41687;SDS011;27371;42.686;23.362;2022-10-16T00:37:26;11.38;;;7.88;;
41687;SDS011;27371;42.686;23.362;2022-10-16T00:39:51;12.00;;;6.97;;
41687;SDS011;27371;42.686;23.362;2022-10-16T00:42:17;10.48;;;6.10;;
41687;SDS011;27371;42.686;23.362;2022-10-16T00:50:08;11.95;;;6.72;;
41687;SDS011;27371;42.686;23.362;2022-10-16T00:52:36;11.55;;;6.72;;
41687;SDS011;27371;42.686;23.362;2022-10-16T00:55:04;10.85;;;6.65;;
41687;SDS011;27371;42.686;23.362;2022-10-16T00:57:31;9.15;;;6.22;;
41687;SDS011;27371;42.686;23.362;2022-10-16T00:59:57;11.60;;;6.32;;
41687;SDS011;27371;42.686;23.362;2022-10-16T01:02:23;11.32;;;6.10;;
41687;SDS011;27371;42.686;23.362;2022-10-16T01:04:50;11.88;;;6.75;;
41687;SDS011;27371;42.686;23.362;2022-10-16T01:20:42;13.98;;;8.30;;
41687;SDS011;27371;42.686;23.362;2022-10-16T01:23:27;12.70;;;7.68;;
41687;SDS011;27371;42.686;23.362;2022-10-16T01:28:51;15.10;;;10.57;;
41687;SDS011;27371;42.686;23.362;2022-10-16T01:31:21;17.70;;;10.48;;
41687;SDS011;27371;42.686;23.362;2022-10-16T01:34:03;14.10;;;9.98;;
41687;SDS011;27371;42.686;23.362;2022-10-16T01:36:37;16.23;;;9.90;;
41687;SDS011;27371;42.686;23.362;2022-10-16T01:39:06;13.60;;;8.65;;
41687;SDS011;27371;42.686;23.362;2022-10-16T01:41:43;13.60;;;8.93;;
41687;SDS011;27371;42.686;23.362;2022-10-16T01:44:14;14.43;;;9.60;;
41687;SDS011;27371;42.686;23.362;2022-10-16T01:46:52;15.07;;;9.43;;
41687;SDS011;27371;42.686;23.362;2022-10-16T01:49:20;11.77;;;8.40;;
41687;SDS011;27371;42.686;23.362;2022-10-16T01:51:49;18.70;;;7.90;;
41687;SDS011;27371;42.686;23.362;2022-10-16T01:54:18;15.13;;;9.52;;
41687;SDS011;27371;42.686;23.362;2022-10-16T01:56:47;13.48;;;8.35;;
41687;SDS011;27371;42.686;23.362;2022-10-16T01:59:17;14.05;;;8.95;;
41687;SDS011;27371;42.686;23.362;2022-10-16T02:01:47;11.93;;;7.57;;
41687;SDS011;27371;42.686;23.362;2022-10-16T02:04:36;11.45;;;7.85;;
41687;SDS011;27371;42.686;23.362;2022-10-16T02:07:06;13.07;;;8.23;;
41687;SDS011;27371;42.686;23.362;2022-10-16T02:09:33;13.20;;;8.32;;
41687;SDS011;27371;42.686;23.362;2022-10-16T02:12:00;11.52;;;7.65;;
41687;SDS011;27371;42.686;23.362;2022-10-16T02:14:33;11.93;;;7.80;;
41687;SDS011;27371;42.686;23.362;2022-10-16T02:17:09;13.55;;;7.68;;
41687;SDS011;27371;42.686;23.362;2022-10-16T02:19:36;12.90;;;8.52;;
41687;SDS011;27371;42.686;23.362;2022-10-16T02:22:04;12.43;;;7.88;;
41687;SDS011;27371;42.686;23.362;2022-10-16T02:24:38;14.63;;;8.82;;
41687;SDS011;27371;42.686;23.362;2022-10-16T02:27:16;14.52;;;9.15;;
41687;SDS011;27371;42.686;23.362;2022-10-16T02:29:56;13.60;;;9.23;;
41687;SDS011;27371;42.686;23.362;2022-10-16T02:32:29;15.52;;;9.25;;
41687;SDS011;27371;42.686;23.362;2022-10-16T02:34:57;13.68;;;8.43;;
41687;SDS011;27371;42.686;23.362;2022-10-16T02:37:25;12.48;;;9.05;;
41687;SDS011;27371;42.686;23.362;2022-10-16T02:39:52;13.63;;;9.02;;
41687;SDS011;27371;42.686;23.362;2022-10-16T02:42:18;15.25;;;8.38;;
41687;SDS011;27371;42.686;23.362;2022-10-16T02:44:43;15.93;;;8.80;;
41687;SDS011;27371;42.686;23.362;2022-10-16T02:47:09;20.00;;;10.48;;
41687;SDS011;27371;42.686;23.362;2022-10-16T02:49:34;19.75;;;9.43;;
41687;SDS011;27371;42.686;23.362;2022-10-16T02:52:00;15.55;;;9.77;;
41687;SDS011;27371;42.686;23.362;2022-10-16T02:54:25;18.33;;;9.70;;
41687;SDS011;27371;42.686;23.362;2022-10-16T02:56:51;14.80;;;9.30;;
41687;SDS011;27371;42.686;23.362;2022-10-16T02:59:17;14.55;;;8.20;;
41687;SDS011;27371;42.686;23.362;2022-10-16T03:01:42;13.68;;;8.00;;
41687;SDS011;27371;42.686;23.362;2022-10-16T03:04:08;15.10;;;8.13;;
41687;SDS011;27371;42.686;23.362;2022-10-16T03:06:34;16.00;;;8.02;;
41687;SDS011;27371;42.686;23.362;2022-10-16T03:08:59;14.52;;;8.88;;
41687;SDS011;27371;42.686;23.362;2022-10-16T03:11:24;14.18;;;7.72;;
41687;SDS011;27371;42.686;23.362;2022-10-16T03:13:51;10.82;;;7.28;;
41687;SDS011;27371;42.686;23.362;2022-10-16T03:16:16;17.38;;;7.47;;
41687;SDS011;27371;42.686;23.362;2022-10-16T03:18:42;8.40;;;6.43;;
41687;SDS011;27371;42.686;23.362;2022-10-16T03:21:07;9.98;;;6.88;;
41687;SDS011;27371;42.686;23.362;2022-10-16T03:23:33;9.68;;;6.03;;
41687;SDS011;27371;42.686;23.362;2022-10-16T03:25:58;11.35;;;6.38;;
41687;SDS011;27371;42.686;23.362;2022-10-16T03:28:24;8.68;;;6.28;;
41687;SDS011;27371;42.686;23.362;2022-10-16T03:30:49;7.88;;;6.03;;
41687;SDS011;27371;42.686;23.362;2022-10-16T03:33:15;7.55;;;5.40;;
41687;SDS011;27371;42.686;23.362;2022-10-16T03:35:40;7.55;;;5.45;;
41687;SDS011;27371;42.686;23.362;2022-10-16T03:38:06;9.15;;;5.75;;
41687;SDS011;27371;42.686;23.362;2022-10-16T03:40:31;8.13;;;5.38;;
41687;SDS011;27371;42.686;23.362;2022-10-16T03:42:57;9.27;;;5.18;;
41687;SDS011;27371;42.686;23.362;2022-10-16T03:45:23;8.65;;;5.32;;
41687;SDS011;27371;42.686;23.362;2022-10-16T03:47:49;7.95;;;5.40;;
41687;SDS011;27371;42.686;23.362;2022-10-16T03:50:15;7.88;;;4.95;;
41687;SDS011;27371;42.686;23.362;2022-10-16T03:52:40;9.05;;;5.30;;
41687;SDS011;27371;42.686;23.362;2022-10-16T03:55:06;8.85;;;5.32;;
41687;SDS011;27371;42.686;23.362;2022-10-16T03:57:32;6.35;;;5.03;;
41687;SDS011;27371;42.686;23.362;2022-10-16T03:59:58;8.63;;;5.47;;
41687;SDS011;27371;42.686;23.362;2022-10-16T04:02:23;8.23;;;5.18;;
41687;SDS011;27371;42.686;23.362;2022-10-16T04:04:49;13.00;;;5.57;;
41687;SDS011;27371;42.686;23.362;2022-10-16T04:07:15;7.47;;;5.43;;
41687;SDS011;27371;42.686;23.362;2022-10-16T04:09:40;11.18;;;6.22;;
41687;SDS011;27371;42.686;23.362;2022-10-16T04:12:06;10.40;;;6.35;;
41687;SDS011;27371;42.686;23.362;2022-10-16T04:14:32;11.07;;;7.03;;
41687;SDS011;27371;42.686;23.362;2022-10-16T04:16:57;7.47;;;5.30;;
41687;SDS011;27371;42.686;23.362;2022-10-16T04:19:23;8.65;;;5.75;;
41687;SDS011;27371;42.686;23.362;2022-10-16T04:21:48;11.38;;;7.32;;
41687;SDS011;27371;42.686;23.362;2022-10-16T04:24:14;8.73;;;6.82;;
41687;SDS011;27371;42.686;23.362;2022-10-16T04:26:39;11.27;;;7.72;;
41687;SDS011;27371;42.686;23.362;2022-10-16T04:29:04;10.20;;;7.05;;
41687;SDS011;27371;42.686;23.362;2022-10-16T04:31:31;11.77;;;7.47;;
41687;SDS011;27371;42.686;23.362;2022-10-16T04:33:56;10.82;;;7.53;;
41687;SDS011;27371;42.686;23.362;2022-10-16T04:36:22;8.57;;;6.13;;
41687;SDS011;27371;42.686;23.362;2022-10-16T04:38:47;11.70;;;8.02;;
41687;SDS011;27371;42.686;23.362;2022-10-16T04:41:13;10.88;;;6.85;;
41687;SDS011;27371;42.686;23.362;2022-10-16T04:43:38;14.13;;;7.72;;
41687;SDS011;27371;42.686;23.362;2022-10-16T04:46:04;12.60;;;9.30;;
41687;SDS011;27371;42.686;23.362;2022-10-16T04:48:30;14.77;;;9.07;;
41687;SDS011;27371;42.686;23.362;2022-10-16T04:50:56;14.10;;;10.32;;
41687;SDS011;27371;42.686;23.362;2022-10-16T04:53:21;19.17;;;15.00;;
41687;SDS011;27371;42.686;23.362;2022-10-16T04:55:47;20.83;;;17.20;;
41687;SDS011;27371;42.686;23.362;2022-10-16T04:58:12;19.77;;;17.45;;
41687;SDS011;27371;42.686;23.362;2022-10-16T05:00:38;18.20;;;14.30;;
41687;SDS011;27371;42.686;23.362;2022-10-16T05:03:04;17.70;;;12.80;;
41687;SDS011;27371;42.686;23.362;2022-10-16T05:05:32;14.02;;;11.27;;
41687;SDS011;27371;42.686;23.362;2022-10-16T05:07:58;19.20;;;11.05;;
41687;SDS011;27371;42.686;23.362;2022-10-16T05:10:23;13.23;;;8.10;;
41687;SDS011;27371;42.686;23.362;2022-10-16T05:12:49;13.13;;;7.68;;
41687;SDS011;27371;42.686;23.362;2022-10-16T05:15:16;13.75;;;8.40;;
41687;SDS011;27371;42.686;23.362;2022-10-16T05:17:42;9.80;;;6.57;;
41687;SDS011;27371;42.686;23.362;2022-10-16T05:20:07;13.73;;;7.35;;
41687;SDS011;27371;42.686;23.362;2022-10-16T05:22:33;16.40;;;7.75;;
41687;SDS011;27371;42.686;23.362;2022-10-16T05:24:58;15.27;;;6.95;;
41687;SDS011;27371;42.686;23.362;2022-10-16T05:27:24;13.50;;;7.22;;
41687;SDS011;27371;42.686;23.362;2022-10-16T05:29:49;10.73;;;6.25;;
41687;SDS011;27371;42.686;23.362;2022-10-16T05:32:16;11.13;;;6.95;;
41687;SDS011;27371;42.686;23.362;2022-10-16T05:34:42;11.18;;;7.10;;
41687;SDS011;27371;42.686;23.362;2022-10-16T05:37:08;13.77;;;7.20;;
41687;SDS011;27371;42.686;23.362;2022-10-16T05:39:34;9.52;;;6.65;;
41687;SDS011;27371;42.686;23.362;2022-10-16T05:42:01;11.60;;;6.97;;
41687;SDS011;27371;42.686;23.362;2022-10-16T05:44:27;12.95;;;6.88;;
41687;SDS011;27371;42.686;23.362;2022-10-16T05:46:53;9.05;;;6.35;;
41687;SDS011;27371;42.686;23.362;2022-10-16T05:49:18;12.07;;;6.75;;
41687;SDS011;27371;42.686;23.362;2022-10-16T05:51:43;10.00;;;6.65;;
41687;SDS011;27371;42.686;23.362;2022-10-16T05:54:09;12.50;;;6.80;;
41687;SDS011;27371;42.686;23.362;2022-10-16T05:56:34;11.13;;;6.80;;
41687;SDS011;27371;42.686;23.362;2022-10-16T05:59:00;11.15;;;6.90;;
41687;SDS011;27371;42.686;23.362;2022-10-16T06:01:25;15.40;;;8.27;;
41687;SDS011;27371;42.686;23.362;2022-10-16T06:03:51;10.32;;;6.65;;
41687;SDS011;27371;42.686;23.362;2022-10-16T06:06:18;10.70;;;7.25;;
41687;SDS011;27371;42.686;23.362;2022-10-16T06:08:45;12.50;;;6.63;;
41687;SDS011;27371;42.686;23.362;2022-10-16T06:11:13;10.90;;;6.28;;
41687;SDS011;27371;42.686;23.362;2022-10-16T06:13:40;13.55;;;7.07;;
41687;SDS011;27371;42.686;23.362;2022-10-16T06:16:11;11.63;;;6.82;;
41687;SDS011;27371;42.686;23.362;2022-10-16T06:18:37;10.23;;;6.70;;
41687;SDS011;27371;42.686;23.362;2022-10-16T06:21:09;14.98;;;7.25;;
41687;SDS011;27371;42.686;23.362;2022-10-16T06:23:36;9.75;;;7.95;;
41687;SDS011;27371;42.686;23.362;2022-10-16T06:26:08;14.70;;;7.53;;
41687;SDS011;27371;42.686;23.362;2022-10-16T06:28:36;10.10;;;6.57;;
41687;SDS011;27371;42.686;23.362;2022-10-16T06:31:02;13.52;;;8.13;;
41687;SDS011;27371;42.686;23.362;2022-10-16T06:33:29;18.50;;;8.82;;
41687;SDS011;27371;42.686;23.362;2022-10-16T06:36:04;13.93;;;9.75;;
41687;SDS011;27371;42.686;23.362;2022-10-16T06:38:33;41.90;;;30.63;;
41687;SDS011;27371;42.686;23.362;2022-10-16T06:40:59;15.90;;;10.43;;
41687;SDS011;27371;42.686;23.362;2022-10-16T06:43:24;22.63;;;11.98;;
41687;SDS011;27371;42.686;23.362;2022-10-16T06:45:52;20.00;;;11.55;;
41687;SDS011;27371;42.686;23.362;2022-10-16T06:48:21;21.40;;;11.43;;
41687;SDS011;27371;42.686;23.362;2022-10-16T06:50:55;15.45;;;10.63;;
41687;SDS011;27371;42.686;23.362;2022-10-16T06:53:31;14.55;;;9.15;;
41687;SDS011;27371;42.686;23.362;2022-10-16T06:56:06;13.25;;;9.20;;
41687;SDS011;27371;42.686;23.362;2022-10-16T06:58:41;19.27;;;9.57;;
41687;SDS011;27371;42.686;23.362;2022-10-16T07:01:08;12.10;;;7.95;;
41687;SDS011;27371;42.686;23.362;2022-10-16T07:03:37;14.57;;;8.73;;
41687;SDS011;27371;42.686;23.362;2022-10-16T07:06:05;12.80;;;7.65;;
41687;SDS011;27371;42.686;23.362;2022-10-16T07:08:32;13.45;;;7.22;;
41687;SDS011;27371;42.686;23.362;2022-10-16T07:10:59;11.45;;;6.97;;
41687;SDS011;27371;42.686;23.362;2022-10-16T07:13:26;12.07;;;7.03;;
41687;SDS011;27371;42.686;23.362;2022-10-16T07:15:52;12.77;;;5.30;;
41687;SDS011;27371;42.686;23.362;2022-10-16T07:18:17;8.40;;;5.50;;
41687;SDS011;27371;42.686;23.362;2022-10-16T07:20:43;9.50;;;5.85;;
41687;SDS011;27371;42.686;23.362;2022-10-16T07:23:09;8.55;;;6.25;;
41687;SDS011;27371;42.686;23.362;2022-10-16T07:25:34;7.25;;;5.53;;
41687;SDS011;27371;42.686;23.362;2022-10-16T07:27:59;7.95;;;6.40;;
41687;SDS011;27371;42.686;23.362;2022-10-16T07:30:25;8.80;;;5.65;;
41687;SDS011;27371;42.686;23.362;2022-10-16T07:32:50;9.05;;;5.28;;
41687;SDS011;27371;42.686;23.362;2022-10-16T07:35:16;7.60;;;5.13;;
41687;SDS011;27371;42.686;23.362;2022-10-16T07:37:45;9.60;;;5.57;;
41687;SDS011;27371;42.686;23.362;2022-10-16T07:40:11;8.82;;;5.13;;
41687;SDS011;27371;42.686;23.362;2022-10-16T07:42:37;7.20;;;4.88;;
41687;SDS011;27371;42.686;23.362;2022-10-16T07:45:02;8.82;;;5.15;;
41687;SDS011;27371;42.686;23.362;2022-10-16T07:47:28;6.30;;;4.22;;
41687;SDS011;27371;42.686;23.362;2022-10-16T07:49:54;8.65;;;4.70;;
41687;SDS011;27371;42.686;23.362;2022-10-16T07:52:19;8.85;;;4.80;;
41687;SDS011;27371;42.686;23.362;2022-10-16T07:54:45;15.73;;;5.32;;
41687;SDS011;27371;42.686;23.362;2022-10-16T07:57:10;9.68;;;5.25;;
41687;SDS011;27371;42.686;23.362;2022-10-16T07:59:36;8.30;;;4.70;;
41687;SDS011;27371;42.686;23.362;2022-10-16T08:02:01;9.23;;;6.70;;
41687;SDS011;27371;42.686;23.362;2022-10-16T08:04:27;9.13;;;5.93;;
41687;SDS011;27371;42.686;23.362;2022-10-16T08:06:52;8.82;;;5.90;;
41687;SDS011;27371;42.686;23.362;2022-10-16T08:09:19;7.38;;;5.00;;
41687;SDS011;27371;42.686;23.362;2022-10-16T08:11:44;10.88;;;5.43;;
41687;SDS011;27371;42.686;23.362;2022-10-16T08:14:10;7.85;;;5.07;;
41687;SDS011;27371;42.686;23.362;2022-10-16T08:16:36;12.23;;;5.35;;
41687;SDS011;27371;42.686;23.362;2022-10-16T08:19:01;14.25;;;8.88;;
41687;SDS011;27371;42.686;23.362;2022-10-16T08:21:27;10.73;;;8.82;;
41687;SDS011;27371;42.686;23.362;2022-10-16T08:23:53;9.20;;;6.00;;
41687;SDS011;27371;42.686;23.362;2022-10-16T08:26:19;8.05;;;4.75;;
41687;SDS011;27371;42.686;23.362;2022-10-16T08:28:45;8.90;;;4.32;;
41687;SDS011;27371;42.686;23.362;2022-10-16T08:31:11;9.68;;;4.57;;
41687;SDS011;27371;42.686;23.362;2022-10-16T08:33:39;7.40;;;4.45;;
41687;SDS011;27371;42.686;23.362;2022-10-16T08:36:06;5.63;;;4.10;;
41687;SDS011;27371;42.686;23.362;2022-10-16T08:38:33;8.80;;;5.03;;
41687;SDS011;27371;42.686;23.362;2022-10-16T08:41:10;9.88;;;3.75;;
41687;SDS011;27371;42.686;23.362;2022-10-16T08:49:46;6.78;;;3.42;;
41687;SDS011;27371;42.686;23.362;2022-10-16T08:52:20;6.38;;;3.60;;
41687;SDS011;27371;42.686;23.362;2022-10-16T08:54:47;4.97;;;3.08;;
41687;SDS011;27371;42.686;23.362;2022-10-16T08:57:20;5.35;;;2.60;;
41687;SDS011;27371;42.686;23.362;2022-10-16T08:59:46;4.22;;;2.72;;
41687;SDS011;27371;42.686;23.362;2022-10-16T09:02:31;5.25;;;2.53;;
41687;SDS011;27371;42.686;23.362;2022-10-16T09:05:18;3.55;;;2.42;;
41687;SDS011;27371;42.686;23.362;2022-10-16T09:21:38;4.50;;;2.53;;
41687;SDS011;27371;42.686;23.362;2022-10-16T09:24:19;5.38;;;3.13;;
41687;SDS011;27371;42.686;23.362;2022-10-16T09:26:47;4.88;;;2.80;;
41687;SDS011;27371;42.686;23.362;2022-10-16T09:29:13;5.15;;;2.60;;
41687;SDS011;27371;42.686;23.362;2022-10-16T09:31:39;4.57;;;2.97;;
41687;SDS011;27371;42.686;23.362;2022-10-16T09:34:06;5.20;;;2.90;;
41687;SDS011;27371;42.686;23.362;2022-10-16T09:36:44;5.00;;;2.95;;
41687;SDS011;27371;42.686;23.362;2022-10-16T09:39:11;6.82;;;2.97;;
41687;SDS011;27371;42.686;23.362;2022-10-16T09:41:37;6.63;;;2.75;;
41687;SDS011;27371;42.686;23.362;2022-10-16T09:44:28;6.50;;;3.10;;
41687;SDS011;27371;42.686;23.362;2022-10-16T09:47:12;5.53;;;2.80;;
41687;SDS011;27371;42.686;23.362;2022-10-16T09:52:26;5.97;;;2.58;;
41687;SDS011;27371;42.686;23.362;2022-10-16T09:54:56;5.03;;;2.75;;
41687;SDS011;27371;42.686;23.362;2022-10-16T09:57:24;9.73;;;3.38;;
41687;SDS011;27371;42.686;23.362;2022-10-16T09:59:51;7.22;;;2.38;;
41687;SDS011;27371;42.686;23.362;2022-10-16T10:02:36;3.97;;;2.28;;
41687;SDS011;27371;42.686;23.362;2022-10-16T10:05:13;3.65;;;2.38;;
41687;SDS011;27371;42.686;23.362;2022-10-16T10:07:57;5.40;;;2.92;;
41687;SDS011;27371;42.686;23.362;2022-10-16T10:10:25;5.22;;;3.10;;
41687;SDS011;27371;42.686;23.362;2022-10-16T10:12:53;6.38;;;2.75;;
41687;SDS011;27371;42.686;23.362;2022-10-16T10:15:20;6.38;;;3.00;;
41687;SDS011;27371;42.686;23.362;2022-10-16T10:17:52;4.22;;;2.17;;
41687;SDS011;27371;42.686;23.362;2022-10-16T10:20:23;7.15;;;3.15;;
41687;SDS011;27371;42.686;23.362;2022-10-16T10:22:52;4.30;;;2.63;;
41687;SDS011;27371;42.686;23.362;2022-10-16T10:30:45;4.85;;;2.78;;
41687;SDS011;27371;42.686;23.362;2022-10-16T10:34:16;6.80;;;2.85;;
41687;SDS011;27371;42.686;23.362;2022-10-16T10:36:45;6.00;;;2.55;;
41687;SDS011;27371;42.686;23.362;2022-10-16T10:39:36;6.00;;;2.53;;
41687;SDS011;27371;42.686;23.362;2022-10-16T10:42:14;4.75;;;2.50;;
41687;SDS011;27371;42.686;23.362;2022-10-16T10:47:36;6.75;;;3.30;;
41687;SDS011;27371;42.686;23.362;2022-10-16T11:07:32;5.38;;;2.25;;
41687;SDS011;27371;42.686;23.362;2022-10-16T11:10:20;4.75;;;2.15;;
41687;SDS011;27371;42.686;23.362;2022-10-16T11:12:49;4.82;;;2.33;;
41687;SDS011;27371;42.686;23.362;2022-10-16T11:15:21;5.43;;;2.22;;
41687;SDS011;27371;42.686;23.362;2022-10-16T11:17:53;6.28;;;2.38;;
41687;SDS011;27371;42.686;23.362;2022-10-16T11:20:37;7.43;;;2.50;;
41687;SDS011;27371;42.686;23.362;2022-10-16T11:23:16;4.40;;;2.40;;
41687;SDS011;27371;42.686;23.362;2022-10-16T11:25:48;3.30;;;2.13;;
41687;SDS011;27371;42.686;23.362;2022-10-16T11:28:19;4.95;;;2.55;;
41687;SDS011;27371;42.686;23.362;2022-10-16T11:30:56;5.15;;;2.38;;
41687;SDS011;27371;42.686;23.362;2022-10-16T11:33:40;4.93;;;2.20;;
41687;SDS011;27371;42.686;23.362;2022-10-16T11:41:42;5.95;;;2.00;;
41687;SDS011;27371;42.686;23.362;2022-10-16T11:44:35;3.45;;;1.95;;
41687;SDS011;27371;42.686;23.362;2022-10-16T11:49:50;3.90;;;2.35;;
41687;SDS011;27371;42.686;23.362;2022-10-16T11:52:30;4.47;;;1.95;;
41687;SDS011;27371;42.686;23.362;2022-10-16T11:57:51;8.27;;;2.40;;
41687;SDS011;27371;42.686;23.362;2022-10-16T12:03:22;4.97;;;2.25;;
41687;SDS011;27371;42.686;23.362;2022-10-16T12:08:22;2.38;;;1.90;;
41687;SDS011;27371;42.686;23.362;2022-10-16T12:10:47;3.85;;;1.90;;
41687;SDS011;27371;42.686;23.362;2022-10-16T12:16:20;4.45;;;2.15;;
41687;SDS011;27371;42.686;23.362;2022-10-16T12:18:46;4.10;;;1.98;;
41687;SDS011;27371;42.686;23.362;2022-10-16T12:21:13;4.90;;;1.88;;
41687;SDS011;27371;42.686;23.362;2022-10-16T12:26:23;4.28;;;2.10;;
41687;SDS011;27371;42.686;23.362;2022-10-16T12:28:53;7.53;;;2.38;;
41687;SDS011;27371;42.686;23.362;2022-10-16T12:31:20;3.33;;;2.10;;
41687;SDS011;27371;42.686;23.362;2022-10-16T12:33:58;4.05;;;2.13;;
41687;SDS011;27371;42.686;23.362;2022-10-16T12:36:36;3.85;;;2.33;;
41687;SDS011;27371;42.686;23.362;2022-10-16T12:39:02;6.22;;;2.40;;
41687;SDS011;27371;42.686;23.362;2022-10-16T12:43:58;8.45;;;2.25;;
41687;SDS011;27371;42.686;23.362;2022-10-16T12:46:37;8.75;;;2.03;;
41687;SDS011;27371;42.686;23.362;2022-10-16T12:49:29;3.28;;;1.77;;
41687;SDS011;27371;42.686;23.362;2022-10-16T12:51:52;5.65;;;2.15;;
41687;SDS011;27371;42.686;23.362;2022-10-16T12:54:20;3.75;;;1.92;;
41687;SDS011;27371;42.686;23.362;2022-10-16T12:57:13;4.68;;;2.55;;
41687;SDS011;27371;42.686;23.362;2022-10-16T13:02:49;4.95;;;1.90;;
41687;SDS011;27371;42.686;23.362;2022-10-16T13:17:18;6.05;;;2.13;;
41687;SDS011;27371;42.686;23.362;2022-10-16T13:20:02;5.55;;;2.42;;
41687;SDS011;27371;42.686;23.362;2022-10-16T13:22:48;8.30;;;2.83;;
41687;SDS011;27371;42.686;23.362;2022-10-16T13:28:10;5.32;;;1.75;;
41687;SDS011;27371;42.686;23.362;2022-10-16T13:30:41;5.25;;;1.98;;
41687;SDS011;27371;42.686;23.362;2022-10-16T13:33:16;3.35;;;1.70;;
41687;SDS011;27371;42.686;23.362;2022-10-16T13:35:50;3.25;;;1.63;;
41687;SDS011;27371;42.686;23.362;2022-10-16T13:38:19;12.35;;;2.10;;
41687;SDS011;27371;42.686;23.362;2022-10-16T13:46:19;5.10;;;1.65;;
41687;SDS011;27371;42.686;23.362;2022-10-16T13:48:59;3.00;;;2.10;;
41687;SDS011;27371;42.686;23.362;2022-10-16T13:51:26;4.70;;;1.63;;
41687;SDS011;27371;42.686;23.362;2022-10-16T13:53:54;6.30;;;2.50;;
41687;SDS011;27371;42.686;23.362;2022-10-16T13:56:22;6.03;;;1.98;;
41687;SDS011;27371;42.686;23.362;2022-10-16T13:59:02;4.43;;;1.75;;
41687;SDS011;27371;42.686;23.362;2022-10-16T14:04:47;4.38;;;2.00;;
41687;SDS011;27371;42.686;23.362;2022-10-16T14:07:14;7.32;;;3.60;;
41687;SDS011;27371;42.686;23.362;2022-10-16T14:09:47;3.20;;;1.70;;
41687;SDS011;27371;42.686;23.362;2022-10-16T14:12:15;2.92;;;1.60;;
41687;SDS011;27371;42.686;23.362;2022-10-16T14:14:42;3.90;;;1.48;;
41687;SDS011;27371;42.686;23.362;2022-10-16T14:17:19;2.83;;;1.50;;
41687;SDS011;27371;42.686;23.362;2022-10-16T14:19:49;3.17;;;1.45;;
41687;SDS011;27371;42.686;23.362;2022-10-16T14:22:22;6.13;;;2.10;;
41687;SDS011;27371;42.686;23.362;2022-10-16T14:24:49;4.72;;;1.77;;
41687;SDS011;27371;42.686;23.362;2022-10-16T14:27:26;6.80;;;2.05;;
41687;SDS011;27371;42.686;23.362;2022-10-16T14:32:33;5.28;;;1.92;;
41687;SDS011;27371;42.686;23.362;2022-10-16T14:34:58;6.65;;;1.60;;
41687;SDS011;27371;42.686;23.362;2022-10-16T14:39:59;8.20;;;4.05;;
41687;SDS011;27371;42.686;23.362;2022-10-16T14:42:26;6.13;;;3.63;;
41687;SDS011;27371;42.686;23.362;2022-10-16T14:44:53;5.65;;;2.90;;
41687;SDS011;27371;42.686;23.362;2022-10-16T14:47:20;4.50;;;2.30;;
41687;SDS011;27371;42.686;23.362;2022-10-16T14:49:50;2.53;;;1.52;;
41687;SDS011;27371;42.686;23.362;2022-10-16T14:52:18;6.95;;;1.90;;
41687;SDS011;27371;42.686;23.362;2022-10-16T14:54:43;6.07;;;1.98;;
41687;SDS011;27371;42.686;23.362;2022-10-16T14:57:20;7.07;;;2.13;;
41687;SDS011;27371;42.686;23.362;2022-10-16T15:04:58;6.45;;;2.00;;
41687;SDS011;27371;42.686;23.362;2022-10-16T15:07:37;7.35;;;1.60;;
41687;SDS011;27371;42.686;23.362;2022-10-16T15:10:02;3.63;;;2.10;;
41687;SDS011;27371;42.686;23.362;2022-10-16T15:12:28;5.93;;;1.88;;
41687;SDS011;27371;42.686;23.362;2022-10-16T15:14:53;12.57;;;2.33;;
41687;SDS011;27371;42.686;23.362;2022-10-16T15:17:19;10.63;;;2.92;;
41687;SDS011;27371;42.686;23.362;2022-10-16T15:19:44;8.38;;;2.50;;
41687;SDS011;27371;42.686;23.362;2022-10-16T15:22:11;4.80;;;2.45;;
41687;SDS011;27371;42.686;23.362;2022-10-16T15:24:37;6.43;;;2.80;;
41687;SDS011;27371;42.686;23.362;2022-10-16T15:27:02;6.03;;;2.70;;
41687;SDS011;27371;42.686;23.362;2022-10-16T15:29:28;6.15;;;2.30;;
41687;SDS011;27371;42.686;23.362;2022-10-16T15:31:53;5.90;;;2.20;;
41687;SDS011;27371;42.686;23.362;2022-10-16T15:34:19;7.90;;;2.45;;
41687;SDS011;27371;42.686;23.362;2022-10-16T15:36:44;4.32;;;2.22;;
41687;SDS011;27371;42.686;23.362;2022-10-16T15:39:14;6.32;;;2.70;;
41687;SDS011;27371;42.686;23.362;2022-10-16T15:41:41;5.80;;;2.42;;
41687;SDS011;27371;42.686;23.362;2022-10-16T15:44:07;8.98;;;2.60;;
41687;SDS011;27371;42.686;23.362;2022-10-16T15:46:33;3.95;;;2.35;;
41687;SDS011;27371;42.686;23.362;2022-10-16T15:48:59;7.20;;;2.45;;
41687;SDS011;27371;42.686;23.362;2022-10-16T15:51:26;7.93;;;2.40;;
41687;SDS011;27371;42.686;23.362;2022-10-16T15:53:57;5.22;;;2.00;;
41687;SDS011;27371;42.686;23.362;2022-10-16T15:56:24;5.10;;;2.17;;
41687;SDS011;27371;42.686;23.362;2022-10-16T15:58:51;3.58;;;2.20;;
41687;SDS011;27371;42.686;23.362;2022-10-16T16:01:17;7.20;;;2.72;;
41687;SDS011;27371;42.686;23.362;2022-10-16T16:03:43;7.15;;;2.80;;
41687;SDS011;27371;42.686;23.362;2022-10-16T16:06:10;6.07;;;2.88;;
41687;SDS011;27371;42.686;23.362;2022-10-16T16:08:37;5.93;;;3.10;;
41687;SDS011;27371;42.686;23.362;2022-10-16T16:11:04;8.20;;;3.75;;
41687;SDS011;27371;42.686;23.362;2022-10-16T16:13:32;7.20;;;3.25;;
41687;SDS011;27371;42.686;23.362;2022-10-16T16:15:57;6.88;;;3.63;;
41687;SDS011;27371;42.686;23.362;2022-10-16T16:18:23;9.07;;;3.58;;
41687;SDS011;27371;42.686;23.362;2022-10-16T16:20:49;5.47;;;3.65;;
41687;SDS011;27371;42.686;23.362;2022-10-16T16:23:15;8.77;;;4.35;;
41687;SDS011;27371;42.686;23.362;2022-10-16T16:25:41;11.13;;;4.13;;
41687;SDS011;27371;42.686;23.362;2022-10-16T16:28:07;12.10;;;4.70;;
41687;SDS011;27371;42.686;23.362;2022-10-16T16:30:35;7.15;;;4.45;;
41687;SDS011;27371;42.686;23.362;2022-10-16T16:33:00;11.52;;;5.95;;
41687;SDS011;27371;42.686;23.362;2022-10-16T16:35:26;29.00;;;15.45;;
41687;SDS011;27371;42.686;23.362;2022-10-16T16:37:51;22.60;;;12.38;;
41687;SDS011;27371;42.686;23.362;2022-10-16T16:40:17;20.20;;;12.50;;
41687;SDS011;27371;42.686;23.362;2022-10-16T16:42:43;13.70;;;7.00;;
41687;SDS011;27371;42.686;23.362;2022-10-16T16:45:08;9.90;;;5.28;;
41687;SDS011;27371;42.686;23.362;2022-10-16T16:47:34;9.52;;;5.28;;
41687;SDS011;27371;42.686;23.362;2022-10-16T16:49:59;10.30;;;5.20;;
41687;SDS011;27371;42.686;23.362;2022-10-16T16:52:29;8.73;;;4.30;;
41687;SDS011;27371;42.686;23.362;2022-10-16T16:54:55;9.10;;;3.92;;